E.r. Vancouver — LXVQ — position and weather

sailwx.info

Track history (hours):
 
Tides and Currents Weather Stations Pressure Air Temp Water Temp Dewpoint Dewpoint Depression Visibility Wind Speed Wind Dir Waves Ship Positions

E.r. Vancouver

Last reported at 2017-Nov-19 12:30 UTC. Time now 2017-Nov-19 12:36 UTC.
Position N 51°39' E 001°24'.

; draft 9.3 m.

Type: Ship. MMSI: 253406000.

Date/timePositionNaut miles runAvg speedWind from/ knotsBaromVisibWave heightAir tempDewpointWater temp
2017-Nov-19 12:30N 51°39' E 001°24'1019.7
2017-Nov-19 12:00N 51°33' E 001°10'917.0
2017-Nov-19 11:30N 51°29' E 000°59'816.4
2017-Nov-19 11:00N 51°29' E 000°45'10 1.0
2017-Nov-19 01:30N 51°30' E 000°30'0 0.0
2017-Nov-19 01:01N 51°30' E 000°30'0 0.0
2017-Nov-19 00:31N 51°30' E 000°30'0 0.0
2017-Nov-19 00:01N 51°30' E 000°30'0 0.3
2017-Nov-18 23:31N 51°30' E 000°30'2 4.1
2017-Nov-18 23:00N 51°30' E 000°33'612.6
2017-Nov-18 22:30N 51°30' E 000°43'816.6
2017-Nov-18 22:00N 51°30' E 000°56'1 1.4
2017-Nov-18 21:30N 51°30' E 000°55'4 7.1
2017-Nov-18 21:00N 51°30' E 001°01'611.5
2017-Nov-18 20:30N 51°33' E 001°09'816.7
2017-Nov-18 20:00N 51°37' E 001°20'1020.9
2017-Nov-18 19:30N 51°45' E 001°31'816.8
2017-Nov-18 19:01N 51°52' E 001°40'2 4.8
2017-Nov-18 18:30N 51°52' E 001°44'4 8.5
2017-Nov-18 18:01N 51°49' E 001°49'917.2
2017-Nov-18 17:30N 51°40' E 001°49'1019.4
2017-Nov-18 17:01N 51°31' E 001°52'1121.4
2017-Nov-18 16:31N 51°24' E 002°05'1020.5
2017-Nov-18 16:00N 51°21' E 002°21'1120.3
2017-Nov-18 15:29N 51°23' E 002°38'813.0
2017-Nov-18 14:52N 51°26' E 002°50'819.5
2017-Nov-18 14:29N 51°25' E 003°02'1020.1
2017-Nov-18 14:00N 51°25' E 003°17'919.2
2017-Nov-18 13:30N 51°25' E 003°32'4 8.4
2017-Nov-18 13:00N 51°26' E 003°39'611.2
2017-Nov-18 12:30N 51°22' E 003°45'612.1
2017-Nov-18 12:00N 51°22' E 003°54'612.4
2017-Nov-18 11:31N 51°26' E 004°01'611.1
2017-Nov-18 11:00N 51°22' E 004°08'4 8.9
2017-Nov-18 10:30N 51°21' E 004°15'1 3.0
2017-Nov-18 10:00N 51°21' E 004°17'0 0.0
2017-Nov-18 09:31N 51°21' E 004°17'0 0.6
2017-Nov-18 09:00N 51°21' E 004°18'2 3.1
2017-Nov-18 08:30N 51°19' E 004°19'3 5.8
2017-Nov-18 08:00N 51°17' E 004°20'1 2.9
2017-Nov-18 07:30N 51°15' E 004°21'0 0.1
2017-Nov-18 07:00N 51°15' E 004°21'  
2017-Nov-15 12:56N 51°15' E 004°21'0 0.0
2017-Nov-15 12:25N 51°15' E 004°21'0 0.0
2017-Nov-15 11:55N 51°15' E 004°21'0 0.0
2017-Nov-15 11:28N 51°15' E 004°21'0 0.0
2017-Nov-15 10:58N 51°15' E 004°21'0 0.0
2017-Nov-15 10:28N 51°15' E 004°21'0 0.0
2017-Nov-15 10:00N 51°15' E 004°21'0 0.0
2017-Nov-15 09:30N 51°15' E 004°21'0 0.0
2017-Nov-15 09:00N 51°15' E 004°21'0 0.0
2017-Nov-15 08:30N 51°15' E 004°21'0 0.0
2017-Nov-15 08:00N 51°15' E 004°21'0 0.0
2017-Nov-15 07:29N 51°15' E 004°21'0 0.0
2017-Nov-15 06:59N 51°15' E 004°21'0 0.0
2017-Nov-15 06:29N 51°15' E 004°21'0 0.0
2017-Nov-15 05:59N 51°15' E 004°21'0 0.0
2017-Nov-15 05:28N 51°15' E 004°21'0 0.0
2017-Nov-15 04:58N 51°15' E 004°21'0 0.0
2017-Nov-15 04:28N 51°15' E 004°21'0 0.0
2017-Nov-15 03:58N 51°15' E 004°21'0 0.0
2017-Nov-15 03:28N 51°15' E 004°21'0 0.0
2017-Nov-15 03:00N 51°15' E 004°21'0 0.0
2017-Nov-15 02:30N 51°15' E 004°21'0 0.0
2017-Nov-15 02:00N 51°15' E 004°21'0 0.0
2017-Nov-15 01:30N 51°15' E 004°21'0 0.0
2017-Nov-15 01:00N 51°15' E 004°21'0 0.0
2017-Nov-15 00:29N 51°15' E 004°21'0 0.0
2017-Nov-14 23:56N 51°15' E 004°21'0 0.0
2017-Nov-14 23:31N 51°15' E 004°21'0 0.0
2017-Nov-14 22:57N 51°15' E 004°21'0 0.0
2017-Nov-14 22:30N 51°15' E 004°21'0 0.0
2017-Nov-14 22:00N 51°15' E 004°21'0 0.0
2017-Nov-14 21:30N 51°15' E 004°21'0 0.0
2017-Nov-14 20:59N 51°15' E 004°21'0 0.0
2017-Nov-14 20:29N 51°15' E 004°21'0 0.0
2017-Nov-14 19:59N 51°15' E 004°21'0 0.0
2017-Nov-14 19:29N 51°15' E 004°21'0 0.0
2017-Nov-14 18:59N 51°15' E 004°21'0 0.0
2017-Nov-14 18:28N 51°15' E 004°21'0 0.0
2017-Nov-14 17:58N 51°15' E 004°21'0 0.0
2017-Nov-14 17:28N 51°15' E 004°21'0 0.1
2017-Nov-14 16:58N 51°15' E 004°21'0 0.0
2017-Nov-14 16:31N 51°15' E 004°21'0 0.0
2017-Nov-14 16:00N 51°15' E 004°21'0 0.1
2017-Nov-14 15:30N 51°15' E 004°21'0 0.0
2017-Nov-14 15:00N 51°15' E 004°21'0 0.0
2017-Nov-14 14:30N 51°15' E 004°21'0 0.0
2017-Nov-14 13:59N 51°15' E 004°21'0 0.0
2017-Nov-14 13:29N 51°15' E 004°21'0 0.0
2017-Nov-14 12:59N 51°15' E 004°21'0 0.0
2017-Nov-14 12:29N 51°15' E 004°21'0 0.0
2017-Nov-14 11:59N 51°15' E 004°21'0 0.0
2017-Nov-14 11:28N 51°15' E 004°21'0 0.0
2017-Nov-14 10:58N 51°15' E 004°21'0 0.0
2017-Nov-14 10:28N 51°15' E 004°21'0 0.0
2017-Nov-14 09:58N 51°15' E 004°21'0 0.0
2017-Nov-14 09:30N 51°15' E 004°21'1 1.7
2017-Nov-14 09:00N 51°16' E 004°21'2 4.9
2017-Nov-14 08:30N 51°18' E 004°19'3 5.5
2017-Nov-14 08:00N 51°21' E 004°17'0 0.0
2017-Nov-14 07:31N 51°21' E 004°17'0 0.0
2017-Nov-14 07:00N 51°21' E 004°17'0 0.0
2017-Nov-14 06:30N 51°21' E 004°17'0 0.6
2017-Nov-14 06:00N 51°21' E 004°17'1 2.3
2017-Nov-14 05:30N 51°20' E 004°16'2 4.8
2017-Nov-14 05:00N 51°17' E 004°15'0 0.4
2017-Nov-14 04:29N 51°17' E 004°15'0 0.0
2017-Nov-14 03:59N 51°17' E 004°15'0 0.0
2017-Nov-14 03:25N 51°17' E 004°15'0 0.0
2017-Nov-14 02:58N 51°17' E 004°15'0 0.0
2017-Nov-14 02:30N 51°17' E 004°15'0 0.0
2017-Nov-14 02:00N 51°17' E 004°15'0 0.0
2017-Nov-14 01:30N 51°17' E 004°15'0 0.0
2017-Nov-14 01:00N 51°17' E 004°15'0 0.0
2017-Nov-14 00:30N 51°17' E 004°15'0 0.0
2017-Nov-14 00:00N 51°17' E 004°15'0 0.0
2017-Nov-13 23:30N 51°17' E 004°15'0 0.0
2017-Nov-13 23:00N 51°17' E 004°15'0 0.0
2017-Nov-13 22:30N 51°17' E 004°15'0 0.0
2017-Nov-13 22:00N 51°17' E 004°15'63 3.2
2017-Nov-13 01:59N 51°22' E 002°35'1017.0
2017-Nov-13 01:26N 51°19' E 002°20'717.0
2017-Nov-13 01:00N 51°15' E 002°11'917.1
2017-Nov-13 00:29N 51°10' E 001°59'817.1
2017-Nov-13 00:00N 51°07' E 001°47'816.5
2017-Nov-12 23:31N 51°02' E 001°36'714.4
2017-Nov-12 23:00N 51°05' E 001°25'3 5.9
2017-Nov-12 22:30N 51°05' E 001°20'3 6.5
2017-Nov-12 22:01N 51°06' E 001°25'714.2
2017-Nov-12 21:31N 51°08' E 001°35'714.4
2017-Nov-12 21:01N 51°15' E 001°40'714.1
2017-Nov-12 20:30N 51°22' E 001°44'714.0
2017-Nov-12 20:01N 51°28' E 001°47'714.2
2017-Nov-12 19:31N 51°35' E 001°46'714.6
2017-Nov-12 19:00N 51°43' E 001°46'714.6
2017-Nov-12 18:31N 51°50' E 001°43'510.1
2017-Nov-12 18:01N 51°51' E 001°35'611.6
2017-Nov-12 17:30N 51°45' E 001°31'815.7
2017-Nov-12 17:00N 51°39' E 001°23'816.1
2017-Nov-12 16:31N 51°34' E 001°13'816.2
2017-Nov-12 15:59N 51°30' E 001°01'714.2
2017-Nov-12 15:30N 51°29' E 000°50'2 0.1
2017-Nov-11 21:51N 51°29' E 000°53'411.4
2017-Nov-11 21:30N 51°29' E 000°60'612.4
2017-Nov-11 21:00N 51°33' E 001°08'612.6
2017-Nov-11 20:30N 51°36' E 001°17'713.1
2017-Nov-11 20:01N 51°40' E 001°25'714.5
2017-Nov-11 19:30N 51°46' E 001°32'714.5
2017-Nov-11 19:00N 51°51' E 001°41'4 7.7
2017-Nov-11 18:31N 51°51' E 001°47'714.0
2017-Nov-11 18:00N 51°44' E 001°49'714.6
2017-Nov-11 17:31N 51°37' E 001°49'714.9
2017-Nov-11 17:00N 51°30' E 001°47'715.0
2017-Nov-11 16:31N 51°22' E 001°44'715.0
2017-Nov-11 16:01N 51°15' E 001°40'713.2
2017-Nov-11 15:31N 51°09' E 001°39'612.4
2017-Nov-11 15:01N 51°03' E 001°37'714.2
2017-Nov-11 14:31N 50°57' E 001°29'713.8
2017-Nov-11 14:00N 50°51' E 001°25'714.1
2017-Nov-11 13:31N 50°44' E 001°22'4213.9
2017-Nov-11 10:28N 50°24' E 000°24'714.7
2017-Nov-11 10:00N 50°22' E 000°13'714.8
2017-Nov-11 09:30N 50°20' E 000°02'714.7
2017-Nov-11 09:00N 50°18' W 000°09'814.9
2017-Nov-11 08:30N 50°16' W 000°20'714.4
2017-Nov-11 08:00N 50°14' W 000°31'713.4
2017-Nov-11 07:30N 50°12' W 000°41'713.1
2017-Nov-11 07:00N 50°11' W 000°51'613.1
2017-Nov-11 06:30N 50°09' W 001°01'713.3
2017-Nov-11 06:00N 50°08' W 001°11'713.5
2017-Nov-11 05:30N 50°06' W 001°21'713.7
2017-Nov-11 05:01N 50°04' W 001°31'714.2
2017-Nov-11 04:31N 50°02' W 001°42'714.7
2017-Nov-11 04:00N 49°59' W 001°53'815.2
2017-Nov-11 03:31N 49°58' W 002°04'815.6
2017-Nov-11 03:00N 49°56' W 002°16'1415.9
2017-Nov-11 02:06N 49°53' W 002°38'415.9
2017-Nov-11 01:51N 49°51' W 002°44'715.9
2017-Nov-11 01:24N 49°49' W 002°54'615.7
2017-Nov-11 01:00N 49°46' W 003°03'815.7
2017-Nov-11 00:30N 49°42' W 003°13'815.5
2017-Nov-11 00:00N 49°38' W 003°23'5315.6
2017-Nov-10 20:35N 49°10' W 004°33'215.4
2017-Nov-10 20:28N 49°09' W 004°36'915.4
2017-Nov-10 19:51N 49°05' W 004°48'515.4
2017-Nov-10 19:31N 49°02' W 004°55'816.2
2017-Nov-10 18:59N 48°58' W 005°07'816.8
2017-Nov-10 18:30N 48°54' W 005°17'816.7
2017-Nov-10 18:00N 48°50' W 005°28'816.2
2017-Nov-10 17:30N 48°45' W 005°38'816.1
2017-Nov-10 17:00N 48°38' W 005°43'815.8
2017-Nov-10 16:30N 48°31' W 005°49'815.4
2017-Nov-10 16:00N 48°24' W 005°54'815.3
2017-Nov-10 15:29N 48°17' W 005°60'815.0
2017-Nov-10 14:58N 48°10' W 006°05'914.8
2017-Nov-10 14:21N 48°02' W 006°11'1114.6
2017-Nov-10 13:38N 47°52' W 006°19'  
Track history (hours):
 
Tides and Currents Weather Stations Pressure Air Temp Water Temp Dewpoint Dewpoint Depression Visibility Wind Speed Wind Dir Waves Ship Positions

E.r. Vancouver

Last reported at 2017-Nov-19 12:30 UTC. Time now 2017-Nov-19 12:36 UTC.
Position N 51°39' E 001°24'.

; draft 9.3 m.

Type: Ship. MMSI: 253406000.

Date/timePositionNaut miles runAvg speedWind from/ knotsBaromVisibWave heightAir tempDewpointWater temp
2017-Nov-19 12:30N 51°39' E 001°24'1019.7
2017-Nov-19 12:00N 51°33' E 001°10'917.0
2017-Nov-19 11:30N 51°29' E 000°59'816.4
2017-Nov-19 11:00N 51°29' E 000°45'10 1.0
2017-Nov-19 01:30N 51°30' E 000°30'0 0.0
2017-Nov-19 01:01N 51°30' E 000°30'0 0.0
2017-Nov-19 00:31N 51°30' E 000°30'0 0.0
2017-Nov-19 00:01N 51°30' E 000°30'0 0.3
2017-Nov-18 23:31N 51°30' E 000°30'2 4.1
2017-Nov-18 23:00N 51°30' E 000°33'612.6
2017-Nov-18 22:30N 51°30' E 000°43'816.6
2017-Nov-18 22:00N 51°30' E 000°56'1 1.4
2017-Nov-18 21:30N 51°30' E 000°55'4 7.1
2017-Nov-18 21:00N 51°30' E 001°01'611.5
2017-Nov-18 20:30N 51°33' E 001°09'816.7
2017-Nov-18 20:00N 51°37' E 001°20'1020.9
2017-Nov-18 19:30N 51°45' E 001°31'816.8
2017-Nov-18 19:01N 51°52' E 001°40'2 4.8
2017-Nov-18 18:30N 51°52' E 001°44'4 8.5
2017-Nov-18 18:01N 51°49' E 001°49'917.2
2017-Nov-18 17:30N 51°40' E 001°49'1019.4
2017-Nov-18 17:01N 51°31' E 001°52'1121.4
2017-Nov-18 16:31N 51°24' E 002°05'1020.5
2017-Nov-18 16:00N 51°21' E 002°21'1120.3
2017-Nov-18 15:29N 51°23' E 002°38'813.0
2017-Nov-18 14:52N 51°26' E 002°50'819.5
2017-Nov-18 14:29N 51°25' E 003°02'1020.1
2017-Nov-18 14:00N 51°25' E 003°17'919.2
2017-Nov-18 13:30N 51°25' E 003°32'4 8.4
2017-Nov-18 13:00N 51°26' E 003°39'611.2
2017-Nov-18 12:30N 51°22' E 003°45'612.1
2017-Nov-18 12:00N 51°22' E 003°54'612.4
2017-Nov-18 11:31N 51°26' E 004°01'611.1
2017-Nov-18 11:00N 51°22' E 004°08'4 8.9
2017-Nov-18 10:30N 51°21' E 004°15'1 3.0
2017-Nov-18 10:00N 51°21' E 004°17'0 0.0
2017-Nov-18 09:31N 51°21' E 004°17'0 0.6
2017-Nov-18 09:00N 51°21' E 004°18'2 3.1
2017-Nov-18 08:30N 51°19' E 004°19'3 5.8
2017-Nov-18 08:00N 51°17' E 004°20'1 2.9
2017-Nov-18 07:30N 51°15' E 004°21'0 0.1
2017-Nov-18 07:00N 51°15' E 004°21'  
2017-Nov-15 12:56N 51°15' E 004°21'0 0.0
2017-Nov-15 12:25N 51°15' E 004°21'0 0.0
2017-Nov-15 11:55N 51°15' E 004°21'0 0.0
2017-Nov-15 11:28N 51°15' E 004°21'0 0.0
2017-Nov-15 10:58N 51°15' E 004°21'0 0.0
2017-Nov-15 10:28N 51°15' E 004°21'0 0.0
2017-Nov-15 10:00N 51°15' E 004°21'0 0.0
2017-Nov-15 09:30N 51°15' E 004°21'0 0.0
2017-Nov-15 09:00N 51°15' E 004°21'0 0.0
2017-Nov-15 08:30N 51°15' E 004°21'0 0.0
2017-Nov-15 08:00N 51°15' E 004°21'0 0.0
2017-Nov-15 07:29N 51°15' E 004°21'0 0.0
2017-Nov-15 06:59N 51°15' E 004°21'0 0.0
2017-Nov-15 06:29N 51°15' E 004°21'0 0.0
2017-Nov-15 05:59N 51°15' E 004°21'0 0.0
2017-Nov-15 05:28N 51°15' E 004°21'0 0.0
2017-Nov-15 04:58N 51°15' E 004°21'0 0.0
2017-Nov-15 04:28N 51°15' E 004°21'0 0.0
2017-Nov-15 03:58N 51°15' E 004°21'0 0.0
2017-Nov-15 03:28N 51°15' E 004°21'0 0.0
2017-Nov-15 03:00N 51°15' E 004°21'0 0.0
2017-Nov-15 02:30N 51°15' E 004°21'0 0.0
2017-Nov-15 02:00N 51°15' E 004°21'0 0.0
2017-Nov-15 01:30N 51°15' E 004°21'0 0.0
2017-Nov-15 01:00N 51°15' E 004°21'0 0.0
2017-Nov-15 00:29N 51°15' E 004°21'0 0.0
2017-Nov-14 23:56N 51°15' E 004°21'0 0.0
2017-Nov-14 23:31N 51°15' E 004°21'0 0.0
2017-Nov-14 22:57N 51°15' E 004°21'0 0.0
2017-Nov-14 22:30N 51°15' E 004°21'0 0.0
2017-Nov-14 22:00N 51°15' E 004°21'0 0.0
2017-Nov-14 21:30N 51°15' E 004°21'0 0.0
2017-Nov-14 20:59N 51°15' E 004°21'0 0.0
2017-Nov-14 20:29N 51°15' E 004°21'0 0.0
2017-Nov-14 19:59N 51°15' E 004°21'0 0.0
2017-Nov-14 19:29N 51°15' E 004°21'0 0.0
2017-Nov-14 18:59N 51°15' E 004°21'0 0.0
2017-Nov-14 18:28N 51°15' E 004°21'0 0.0
2017-Nov-14 17:58N 51°15' E 004°21'0 0.0
2017-Nov-14 17:28N 51°15' E 004°21'0 0.1
2017-Nov-14 16:58N 51°15' E 004°21'0 0.0
2017-Nov-14 16:31N 51°15' E 004°21'0 0.0
2017-Nov-14 16:00N 51°15' E 004°21'0 0.1
2017-Nov-14 15:30N 51°15' E 004°21'0 0.0
2017-Nov-14 15:00N 51°15' E 004°21'0 0.0
2017-Nov-14 14:30N 51°15' E 004°21'0 0.0
2017-Nov-14 13:59N 51°15' E 004°21'0 0.0
2017-Nov-14 13:29N 51°15' E 004°21'0 0.0
2017-Nov-14 12:59N 51°15' E 004°21'0 0.0
2017-Nov-14 12:29N 51°15' E 004°21'0 0.0
2017-Nov-14 11:59N 51°15' E 004°21'0 0.0
2017-Nov-14 11:28N 51°15' E 004°21'0 0.0
2017-Nov-14 10:58N 51°15' E 004°21'0 0.0
2017-Nov-14 10:28N 51°15' E 004°21'0 0.0
2017-Nov-14 09:58N 51°15' E 004°21'0 0.0
2017-Nov-14 09:30N 51°15' E 004°21'1 1.7
2017-Nov-14 09:00N 51°16' E 004°21'2 4.9
2017-Nov-14 08:30N 51°18' E 004°19'3 5.5
2017-Nov-14 08:00N 51°21' E 004°17'0 0.0
2017-Nov-14 07:31N 51°21' E 004°17'0 0.0
2017-Nov-14 07:00N 51°21' E 004°17'0 0.0
2017-Nov-14 06:30N 51°21' E 004°17'0 0.6
2017-Nov-14 06:00N 51°21' E 004°17'1 2.3
2017-Nov-14 05:30N 51°20' E 004°16'2 4.8
2017-Nov-14 05:00N 51°17' E 004°15'0 0.4
2017-Nov-14 04:29N 51°17' E 004°15'0 0.0
2017-Nov-14 03:59N 51°17' E 004°15'0 0.0
2017-Nov-14 03:25N 51°17' E 004°15'0 0.0
2017-Nov-14 02:58N 51°17' E 004°15'0 0.0
2017-Nov-14 02:30N 51°17' E 004°15'0 0.0
2017-Nov-14 02:00N 51°17' E 004°15'0 0.0
2017-Nov-14 01:30N 51°17' E 004°15'0 0.0
2017-Nov-14 01:00N 51°17' E 004°15'0 0.0
2017-Nov-14 00:30N 51°17' E 004°15'0 0.0
2017-Nov-14 00:00N 51°17' E 004°15'0 0.0
2017-Nov-13 23:30N 51°17' E 004°15'0 0.0
2017-Nov-13 23:00N 51°17' E 004°15'0 0.0
2017-Nov-13 22:30N 51°17' E 004°15'0 0.0
2017-Nov-13 22:00N 51°17' E 004°15'63 3.2
2017-Nov-13 01:59N 51°22' E 002°35'1017.0
2017-Nov-13 01:26N 51°19' E 002°20'717.0
2017-Nov-13 01:00N 51°15' E 002°11'917.1
2017-Nov-13 00:29N 51°10' E 001°59'817.1
2017-Nov-13 00:00N 51°07' E 001°47'816.5
2017-Nov-12 23:31N 51°02' E 001°36'714.4
2017-Nov-12 23:00N 51°05' E 001°25'3 5.9
2017-Nov-12 22:30N 51°05' E 001°20'3 6.5
2017-Nov-12 22:01N 51°06' E 001°25'714.2
2017-Nov-12 21:31N 51°08' E 001°35'714.4
2017-Nov-12 21:01N 51°15' E 001°40'714.1
2017-Nov-12 20:30N 51°22' E 001°44'714.0
2017-Nov-12 20:01N 51°28' E 001°47'714.2
2017-Nov-12 19:31N 51°35' E 001°46'714.6
2017-Nov-12 19:00N 51°43' E 001°46'714.6
2017-Nov-12 18:31N 51°50' E 001°43'510.1
2017-Nov-12 18:01N 51°51' E 001°35'611.6
2017-Nov-12 17:30N 51°45' E 001°31'815.7
2017-Nov-12 17:00N 51°39' E 001°23'816.1
2017-Nov-12 16:31N 51°34' E 001°13'816.2
2017-Nov-12 15:59N 51°30' E 001°01'714.2
2017-Nov-12 15:30N 51°29' E 000°50'2 0.1
2017-Nov-11 21:51N 51°29' E 000°53'411.4
2017-Nov-11 21:30N 51°29' E 000°60'612.4
2017-Nov-11 21:00N 51°33' E 001°08'612.6
2017-Nov-11 20:30N 51°36' E 001°17'713.1
2017-Nov-11 20:01N 51°40' E 001°25'714.5
2017-Nov-11 19:30N 51°46' E 001°32'714.5
2017-Nov-11 19:00N 51°51' E 001°41'4 7.7
2017-Nov-11 18:31N 51°51' E 001°47'714.0
2017-Nov-11 18:00N 51°44' E 001°49'714.6
2017-Nov-11 17:31N 51°37' E 001°49'714.9
2017-Nov-11 17:00N 51°30' E 001°47'715.0
2017-Nov-11 16:31N 51°22' E 001°44'715.0
2017-Nov-11 16:01N 51°15' E 001°40'713.2
2017-Nov-11 15:31N 51°09' E 001°39'612.4
2017-Nov-11 15:01N 51°03' E 001°37'714.2
2017-Nov-11 14:31N 50°57' E 001°29'713.8
2017-Nov-11 14:00N 50°51' E 001°25'714.1
2017-Nov-11 13:31N 50°44' E 001°22'4213.9
2017-Nov-11 10:28N 50°24' E 000°24'714.7
2017-Nov-11 10:00N 50°22' E 000°13'714.8
2017-Nov-11 09:30N 50°20' E 000°02'714.7
2017-Nov-11 09:00N 50°18' W 000°09'814.9
2017-Nov-11 08:30N 50°16' W 000°20'714.4
2017-Nov-11 08:00N 50°14' W 000°31'713.4
2017-Nov-11 07:30N 50°12' W 000°41'713.1
2017-Nov-11 07:00N 50°11' W 000°51'613.1
2017-Nov-11 06:30N 50°09' W 001°01'713.3
2017-Nov-11 06:00N 50°08' W 001°11'713.5
2017-Nov-11 05:30N 50°06' W 001°21'713.7
2017-Nov-11 05:01N 50°04' W 001°31'714.2
2017-Nov-11 04:31N 50°02' W 001°42'714.7
2017-Nov-11 04:00N 49°59' W 001°53'815.2
2017-Nov-11 03:31N 49°58' W 002°04'815.6
2017-Nov-11 03:00N 49°56' W 002°16'1415.9
2017-Nov-11 02:06N 49°53' W 002°38'415.9
2017-Nov-11 01:51N 49°51' W 002°44'715.9
2017-Nov-11 01:24N 49°49' W 002°54'615.7
2017-Nov-11 01:00N 49°46' W 003°03'815.7
2017-Nov-11 00:30N 49°42' W 003°13'815.5
2017-Nov-11 00:00N 49°38' W 003°23'5315.6
2017-Nov-10 20:35N 49°10' W 004°33'215.4
2017-Nov-10 20:28N 49°09' W 004°36'915.4
2017-Nov-10 19:51N 49°05' W 004°48'515.4
2017-Nov-10 19:31N 49°02' W 004°55'816.2
2017-Nov-10 18:59N 48°58' W 005°07'816.8
2017-Nov-10 18:30N 48°54' W 005°17'816.7
2017-Nov-10 18:00N 48°50' W 005°28'816.2
2017-Nov-10 17:30N 48°45' W 005°38'816.1
2017-Nov-10 17:00N 48°38' W 005°43'815.8
2017-Nov-10 16:30N 48°31' W 005°49'815.4
2017-Nov-10 16:00N 48°24' W 005°54'815.3
2017-Nov-10 15:29N 48°17' W 005°60'815.0
2017-Nov-10 14:58N 48°10' W 006°05'914.8
2017-Nov-10 14:21N 48°02' W 006°11'1114.6
2017-Nov-10 13:38N 47°52' W 006°19'  

Dump ship's entire track history